createdAt,value
2022-12-11T00:04:41.079Z,11.93
2022-12-11T00:09:43.655Z,11.25
2022-12-11T00:14:46.244Z,11.80
2022-12-11T00:19:49.028Z,11.52
2022-12-11T00:24:51.873Z,11.88
2022-12-11T00:29:55.084Z,12.32
2022-12-11T00:34:58.197Z,11.30
2022-12-11T00:40:00.799Z,11.27
2022-12-11T00:45:03.934Z,11.13
2022-12-11T00:50:07.312Z,11.02
2022-12-11T00:55:10.192Z,9.82
2022-12-11T01:00:13.614Z,10.52
2022-12-11T01:05:17.193Z,10.73
2022-12-11T01:10:25.828Z,10.85
2022-12-11T01:15:30.983Z,10.32
2022-12-11T01:20:33.631Z,11.93
2022-12-11T01:25:38.298Z,11.73
2022-12-11T01:30:43.817Z,10.73
2022-12-11T01:35:46.576Z,11.50
2022-12-11T01:40:51.478Z,12.40
2022-12-11T01:45:54.198Z,12.55
2022-12-11T01:51:00.279Z,11.98
2022-12-11T01:56:04.631Z,13.45
2022-12-11T02:01:08.180Z,13.50
2022-12-11T02:06:37.326Z,13.48
2022-12-11T02:12:16.994Z,13.10
2022-12-11T02:17:34.609Z,12.35
2022-12-11T02:22:39.747Z,13.77
2022-12-11T02:27:47.989Z,13.55
2022-12-11T02:32:56.562Z,12.43
2022-12-11T02:38:05.239Z,13.23
2022-12-11T02:43:11.775Z,12.20
2022-12-11T02:48:17.755Z,13.23
2022-12-11T02:53:24.090Z,12.35
2022-12-11T02:58:31.435Z,12.60
2022-12-11T03:03:34.044Z,12.13
2022-12-11T03:08:36.664Z,13.75
2022-12-11T03:13:42.636Z,12.63
2022-12-11T03:18:45.211Z,12.73
2022-12-11T03:24:12.106Z,11.23
2022-12-11T03:29:20.800Z,12.57
2022-12-11T03:34:29.878Z,13.20
2022-12-11T03:39:37.828Z,12.55
2022-12-11T03:44:44.219Z,12.18
2022-12-11T03:49:48.813Z,12.10
2022-12-11T03:54:52.658Z,17.58
2022-12-11T03:59:55.396Z,12.32
2022-12-11T04:04:58.006Z,12.70
2022-12-11T04:10:00.759Z,12.77
2022-12-11T04:15:03.715Z,11.75
2022-12-11T04:20:29.619Z,12.63
2022-12-11T04:25:32.111Z,12.68
2022-12-11T04:30:34.680Z,12.07
2022-12-11T04:35:37.905Z,11.95
2022-12-11T04:40:40.442Z,13.15
2022-12-11T04:45:42.943Z,14.43
2022-12-11T04:50:46.259Z,13.27
2022-12-11T04:55:49.191Z,15.00
2022-12-11T05:00:52.007Z,14.57
2022-12-11T05:05:56.292Z,13.45
2022-12-11T05:11:01.502Z,14.07
2022-12-11T05:16:09.473Z,13.95
2022-12-11T05:21:14.153Z,14.48
2022-12-11T05:26:19.279Z,15.65
2022-12-11T05:31:24.707Z,14.82
2022-12-11T05:36:31.769Z,15.27
2022-12-11T05:41:34.430Z,15.95
2022-12-11T05:46:37.095Z,16.38
2022-12-11T05:51:39.764Z,17.08
2022-12-11T05:56:42.515Z,18.65
2022-12-11T06:01:45.194Z,17.40
2022-12-11T06:06:48.022Z,17.85
2022-12-11T06:11:50.579Z,19.58
2022-12-11T06:16:53.657Z,16.80
2022-12-11T06:21:56.358Z,16.73
2022-12-11T06:26:59.368Z,16.73
2022-12-11T06:32:02.159Z,15.02
2022-12-11T06:37:05.494Z,17.55
2022-12-11T06:42:08.131Z,17.70
2022-12-11T06:47:10.837Z,17.60
2022-12-11T06:52:18.158Z,16.75
2022-12-11T06:57:22.309Z,19.05
2022-12-11T07:02:24.995Z,17.77
2022-12-11T07:07:27.751Z,18.83
2022-12-11T07:12:30.383Z,16.65
2022-12-11T07:17:33.058Z,17.77
2022-12-11T07:22:35.678Z,17.40
2022-12-11T07:27:38.274Z,18.17
2022-12-11T07:32:40.925Z,18.77
2022-12-11T07:37:45.046Z,19.80
2022-12-11T07:42:47.598Z,19.05
2022-12-11T07:47:50.318Z,18.70
2022-12-11T07:52:52.914Z,17.63
2022-12-11T07:57:55.417Z,19.33
2022-12-11T08:02:58.086Z,20.10
2022-12-11T08:08:00.871Z,18.70
2022-12-11T08:13:03.628Z,20.45
2022-12-11T08:18:06.255Z,18.63
2022-12-11T08:23:08.855Z,19.45
2022-12-11T08:28:11.394Z,19.58
2022-12-11T08:33:14.005Z,18.00
2022-12-11T08:38:22.221Z,17.98
2022-12-11T08:43:27.732Z,12.83
2022-12-11T08:48:30.263Z,17.13
2022-12-11T08:53:33.500Z,16.92
2022-12-11T08:58:37.941Z,16.42
2022-12-11T09:03:42.419Z,16.88
2022-12-11T09:08:51.997Z,16.50
2022-12-11T09:13:55.626Z,17.67
2022-12-11T09:19:00.467Z,18.60
2022-12-11T09:24:03.642Z,17.13
2022-12-11T09:29:07.250Z,17.52
2022-12-11T09:34:12.795Z,17.05
2022-12-11T09:39:18.051Z,17.45
2022-12-11T09:44:41.487Z,17.83
2022-12-11T09:49:46.347Z,17.90
2022-12-11T09:55:13.709Z,15.25
2022-12-11T10:00:21.224Z,18.10
2022-12-11T10:06:04.803Z,17.67
2022-12-11T10:11:19.607Z,14.85
2022-12-11T10:16:43.830Z,16.67
2022-12-11T10:21:47.297Z,17.20
2022-12-11T10:26:58.622Z,17.23
2022-12-11T10:32:02.242Z,17.77
2022-12-11T10:37:04.894Z,18.67
2022-12-11T10:42:19.443Z,18.08
2022-12-11T10:47:22.027Z,20.90
2022-12-11T10:52:28.494Z,20.40
2022-12-11T10:57:36.069Z,19.05
2022-12-11T11:02:40.954Z,19.00
2022-12-11T11:07:44.020Z,19.77
2022-12-11T11:12:50.476Z,16.85
2022-12-11T11:17:56.321Z,18.55
2022-12-11T11:23:11.637Z,16.30
2022-12-11T11:28:21.381Z,16.60
2022-12-11T11:33:24.627Z,20.33
2022-12-11T11:38:35.849Z,18.17
2022-12-11T11:43:47.154Z,19.55
2022-12-11T11:49:06.362Z,19.10
2022-12-11T11:54:35.562Z,19.42
2022-12-11T11:59:49.370Z,19.45
2022-12-11T12:04:53.242Z,19.73
2022-12-11T12:10:09.756Z,18.15
2022-12-11T12:15:27.406Z,19.58
2022-12-11T12:20:35.587Z,19.33
2022-12-11T12:25:56.609Z,17.58
2022-12-11T12:31:32.638Z,19.10
2022-12-11T12:37:00.367Z,17.48
2022-12-11T12:42:34.688Z,14.00
2022-12-11T12:47:38.080Z,15.55
2022-12-11T12:52:41.536Z,12.27
2022-12-11T12:57:53.910Z,13.48
2022-12-11T13:02:58.391Z,14.52
2022-12-11T13:08:05.941Z,13.90
2022-12-11T13:13:51.564Z,14.60
2022-12-11T13:18:57.643Z,20.10
2022-12-11T13:24:21.786Z,27.25
2022-12-11T13:29:38.160Z,14.18
2022-12-11T13:34:44.341Z,11.50
2022-12-11T13:39:47.294Z,11.95
2022-12-11T13:44:50.388Z,12.07
2022-12-11T13:50:23.160Z,11.63
2022-12-11T13:55:28.574Z,10.43
2022-12-11T14:00:32.983Z,9.57
2022-12-11T14:05:36.696Z,11.45
2022-12-11T14:10:40.092Z,10.15
2022-12-11T14:15:45.202Z,10.73
2022-12-11T14:20:55.502Z,8.48
2022-12-11T14:25:59.979Z,8.50
2022-12-11T14:31:05.213Z,8.43
2022-12-11T14:36:08.558Z,8.57
2022-12-11T14:41:22.055Z,9.05
2022-12-11T14:46:40.312Z,9.60
2022-12-11T14:51:43.443Z,9.70
2022-12-11T14:56:47.207Z,9.60
2022-12-11T15:02:21.004Z,9.10
2022-12-11T15:07:24.662Z,7.65
2022-12-11T15:12:27.380Z,7.97
2022-12-11T15:17:30.853Z,8.35
2022-12-11T15:22:34.737Z,6.95
2022-12-11T15:27:39.492Z,8.90
2022-12-11T15:32:42.031Z,8.25
2022-12-11T15:37:53.943Z,7.35
2022-12-11T15:47:59.639Z,9.35
2022-12-11T15:53:02.198Z,7.53
2022-12-11T15:58:14.037Z,8.48
2022-12-11T16:03:19.088Z,7.30
2022-12-11T16:08:23.842Z,8.20
2022-12-11T16:13:26.643Z,8.13
2022-12-11T16:18:29.228Z,7.15
2022-12-11T16:23:32.347Z,7.40
2022-12-11T16:28:34.931Z,6.82
2022-12-11T16:33:37.460Z,5.68
2022-12-11T16:38:40.080Z,7.57
2022-12-11T16:43:42.843Z,7.25
2022-12-11T16:48:45.704Z,6.45
2022-12-11T16:53:48.539Z,6.50
2022-12-11T16:58:51.322Z,7.07
2022-12-11T17:03:54.036Z,6.70
2022-12-11T17:08:57.093Z,5.43
2022-12-11T17:14:00.409Z,5.35
2022-12-11T17:19:05.406Z,5.53
2022-12-11T17:24:10.984Z,5.78
2022-12-11T17:29:14.076Z,5.78
2022-12-11T17:34:16.678Z,5.43
2022-12-11T17:39:19.300Z,5.35
2022-12-11T17:44:21.894Z,6.05
2022-12-11T17:49:24.761Z,5.65
2022-12-11T17:54:27.623Z,5.15
2022-12-11T17:59:30.234Z,5.18
2022-12-11T18:04:32.914Z,5.40
2022-12-11T18:09:38.738Z,6.07
2022-12-11T18:14:41.452Z,5.30
2022-12-11T18:19:46.265Z,5.05
2022-12-11T18:24:50.466Z,4.43
2022-12-11T18:29:52.932Z,4.78
2022-12-11T18:34:55.432Z,4.63
2022-12-11T18:39:58.256Z,4.65
2022-12-11T18:45:01.755Z,4.32
2022-12-11T18:50:08.400Z,4.07
2022-12-11T18:55:11.327Z,3.53
2022-12-11T19:00:15.093Z,3.25
2022-12-11T19:05:18.189Z,2.90
2022-12-11T19:10:21.475Z,3.10
2022-12-11T19:15:24.492Z,2.42
2022-12-11T19:25:50.827Z,2.92
2022-12-11T19:30:53.394Z,3.15
2022-12-11T19:36:12.746Z,3.67
2022-12-11T19:41:23.887Z,3.00
2022-12-11T19:46:28.654Z,3.35
2022-12-11T19:51:38.626Z,2.85
2022-12-11T19:56:41.485Z,2.17
2022-12-11T20:01:45.089Z,3.13
2022-12-11T20:06:48.063Z,4.35
2022-12-11T20:11:51.473Z,2.67
2022-12-11T20:17:13.943Z,3.17
2022-12-11T20:22:17.262Z,2.25
2022-12-11T20:27:19.854Z,2.58
2022-12-11T20:32:22.399Z,2.85
2022-12-11T20:37:26.088Z,2.35
2022-12-11T20:42:28.594Z,2.92
2022-12-11T20:47:31.236Z,3.13
2022-12-11T20:52:34.973Z,3.72
2022-12-11T20:57:43.383Z,4.40
2022-12-11T21:02:50.060Z,4.40
2022-12-11T21:07:54.472Z,5.70
2022-12-11T21:12:57.082Z,5.88
2022-12-11T21:17:59.631Z,5.93
2022-12-11T21:23:03.159Z,7.60
2022-12-11T21:28:05.919Z,9.48
2022-12-11T21:33:08.649Z,10.52
2022-12-11T21:38:11.228Z,12.80
2022-12-11T21:43:13.779Z,12.95
2022-12-11T21:48:16.329Z,17.55
2022-12-11T21:53:19.054Z,16.98
2022-12-11T21:58:21.610Z,15.02
2022-12-11T22:03:24.223Z,16.48
2022-12-11T22:08:26.950Z,17.83
2022-12-11T22:13:29.569Z,15.82
2022-12-11T22:18:32.097Z,17.20
2022-12-11T22:23:34.679Z,18.98
2022-12-11T22:28:38.283Z,19.70
2022-12-11T22:33:41.223Z,17.63
2022-12-11T22:38:44.023Z,21.38
2022-12-11T22:43:46.932Z,19.15
2022-12-11T22:48:49.609Z,21.30
2022-12-11T22:53:52.236Z,21.13
2022-12-11T22:58:56.247Z,19.08
2022-12-11T23:03:58.887Z,19.75
2022-12-11T23:09:01.849Z,23.42
2022-12-11T23:14:05.952Z,21.90
2022-12-11T23:19:09.352Z,21.95
2022-12-11T23:24:12.147Z,21.67
2022-12-11T23:29:15.410Z,21.00
2022-12-11T23:34:18.026Z,20.35
2022-12-11T23:39:20.584Z,21.85
2022-12-11T23:44:23.799Z,18.08
2022-12-11T23:49:26.363Z,16.98
2022-12-11T23:54:28.950Z,17.98
2022-12-11T23:59:31.475Z,18.50
